Puurs, Belgium
Current Conditions -  °F | °C
As of 9:20 PM on Friday 21 Nov 2014 (Local Time) from EBAW Reporting Station
Broken Clouds Broken Clouds  
Wind Chill: 42°   Ceiling: 1400
Heat Index: 45°   Visibility: 6mi
Dew Point: 41°   Wind: 5mph
Humidity: 87%   Direction: 110°ESE
Pressure: 30.06"   Gusts: NA
Location:  51.07°N, 4.29°E
Report Text: EBAW 212020Z 11004KT 9000 BKN014 07/05 Q1018 NOSIG
Loading
Personal Weather Stations






























Interactive Weather Map New forecast layout! Learn more

10-Day Weather Forecast

Advertisements
Track Severe Weather on mobile